sensor_id;sensor_type;location;lat;lon;timestamp;P1;durP1;ratioP1;P2;durP2;ratioP2
11066;SDS011;29763;50.904;5.530;2023-05-19T00:01:40;7.60;;;5.72;;
11066;SDS011;29763;50.904;5.530;2023-05-19T00:04:08;10.75;;;5.90;;
11066;SDS011;29763;50.904;5.530;2023-05-19T00:06:36;8.93;;;6.00;;
11066;SDS011;29763;50.904;5.530;2023-05-19T00:09:03;7.50;;;6.18;;
11066;SDS011;29763;50.904;5.530;2023-05-19T00:11:32;12.25;;;6.65;;
11066;SDS011;29763;50.904;5.530;2023-05-19T00:14:00;9.18;;;5.95;;
11066;SDS011;29763;50.904;5.530;2023-05-19T00:16:28;9.55;;;5.82;;
11066;SDS011;29763;50.904;5.530;2023-05-19T00:18:58;10.73;;;6.32;;
11066;SDS011;29763;50.904;5.530;2023-05-19T00:21:26;9.50;;;5.80;;
11066;SDS011;29763;50.904;5.530;2023-05-19T00:23:52;8.00;;;5.72;;
11066;SDS011;29763;50.904;5.530;2023-05-19T00:26:18;8.93;;;6.18;;
11066;SDS011;29763;50.904;5.530;2023-05-19T00:28:46;7.93;;;6.00;;
11066;SDS011;29763;50.904;5.530;2023-05-19T00:31:13;9.43;;;5.82;;
11066;SDS011;29763;50.904;5.530;2023-05-19T00:33:39;8.15;;;5.90;;
11066;SDS011;29763;50.904;5.530;2023-05-19T00:36:05;8.05;;;5.85;;
11066;SDS011;29763;50.904;5.530;2023-05-19T00:38:31;8.88;;;5.93;;
11066;SDS011;29763;50.904;5.530;2023-05-19T00:40:59;10.10;;;5.75;;
11066;SDS011;29763;50.904;5.530;2023-05-19T00:43:25;10.93;;;6.03;;
11066;SDS011;29763;50.904;5.530;2023-05-19T00:45:51;8.30;;;5.90;;
11066;SDS011;29763;50.904;5.530;2023-05-19T00:48:17;10.40;;;6.05;;
11066;SDS011;29763;50.904;5.530;2023-05-19T00:50:43;9.20;;;6.00;;
11066;SDS011;29763;50.904;5.530;2023-05-19T00:53:09;8.68;;;5.82;;
11066;SDS011;29763;50.904;5.530;2023-05-19T00:55:36;6.60;;;5.90;;
11066;SDS011;29763;50.904;5.530;2023-05-19T00:58:05;9.52;;;6.10;;
11066;SDS011;29763;50.904;5.530;2023-05-19T01:00:31;8.38;;;5.57;;
11066;SDS011;29763;50.904;5.530;2023-05-19T01:02:58;8.45;;;5.90;;
11066;SDS011;29763;50.904;5.530;2023-05-19T01:05:24;10.45;;;5.55;;
11066;SDS011;29763;50.904;5.530;2023-05-19T01:07:50;10.60;;;5.80;;
11066;SDS011;29763;50.904;5.530;2023-05-19T01:10:23;7.82;;;5.53;;
11066;SDS011;29763;50.904;5.530;2023-05-19T01:12:49;9.32;;;5.30;;
11066;SDS011;29763;50.904;5.530;2023-05-19T01:15:14;6.85;;;5.75;;
11066;SDS011;29763;50.904;5.530;2023-05-19T01:17:43;8.48;;;5.45;;
11066;SDS011;29763;50.904;5.530;2023-05-19T01:20:20;8.55;;;5.78;;
11066;SDS011;29763;50.904;5.530;2023-05-19T01:28:23;8.13;;;5.60;;
11066;SDS011;29763;50.904;5.530;2023-05-19T01:31:09;10.13;;;5.93;;
11066;SDS011;29763;50.904;5.530;2023-05-19T01:33:36;9.07;;;5.70;;
11066;SDS011;29763;50.904;5.530;2023-05-19T01:36:03;9.48;;;6.03;;
11066;SDS011;29763;50.904;5.530;2023-05-19T01:38:33;9.98;;;6.18;;
11066;SDS011;29763;50.904;5.530;2023-05-19T01:41:02;11.70;;;6.00;;
11066;SDS011;29763;50.904;5.530;2023-05-19T01:43:30;8.32;;;5.85;;
11066;SDS011;29763;50.904;5.530;2023-05-19T01:45:57;8.10;;;5.78;;
11066;SDS011;29763;50.904;5.530;2023-05-19T01:48:22;7.85;;;5.75;;
11066;SDS011;29763;50.904;5.530;2023-05-19T01:50:49;7.88;;;5.53;;
11066;SDS011;29763;50.904;5.530;2023-05-19T01:53:15;10.95;;;5.75;;
11066;SDS011;29763;50.904;5.530;2023-05-19T01:55:42;8.15;;;5.75;;
11066;SDS011;29763;50.904;5.530;2023-05-19T01:58:17;7.50;;;5.80;;
11066;SDS011;29763;50.904;5.530;2023-05-19T02:00:52;8.68;;;6.05;;
11066;SDS011;29763;50.904;5.530;2023-05-19T02:07:04;10.80;;;6.18;;
11066;SDS011;29763;50.904;5.530;2023-05-19T02:09:20;10.07;;;6.25;;
11066;SDS011;29763;50.904;5.530;2023-05-19T02:14:40;12.35;;;6.32;;
11066;SDS011;29763;50.904;5.530;2023-05-19T02:17:11;11.55;;;6.50;;
11066;SDS011;29763;50.904;5.530;2023-05-19T02:19:38;7.00;;;6.10;;
11066;SDS011;29763;50.904;5.530;2023-05-19T02:22:04;7.95;;;6.38;;
11066;SDS011;29763;50.904;5.530;2023-05-19T02:24:30;9.27;;;6.00;;
11066;SDS011;29763;50.904;5.530;2023-05-19T02:26:56;12.75;;;6.10;;
11066;SDS011;29763;50.904;5.530;2023-05-19T02:29:22;9.63;;;5.97;;
11066;SDS011;29763;50.904;5.530;2023-05-19T02:31:48;9.95;;;6.40;;
11066;SDS011;29763;50.904;5.530;2023-05-19T02:34:13;9.52;;;6.38;;
11066;SDS011;29763;50.904;5.530;2023-05-19T02:36:40;9.05;;;5.85;;
11066;SDS011;29763;50.904;5.530;2023-05-19T02:39:09;7.97;;;6.07;;
11066;SDS011;29763;50.904;5.530;2023-05-19T02:41:36;8.88;;;6.18;;
11066;SDS011;29763;50.904;5.530;2023-05-19T02:44:02;8.43;;;6.07;;
11066;SDS011;29763;50.904;5.530;2023-05-19T02:46:29;7.50;;;5.87;;
11066;SDS011;29763;50.904;5.530;2023-05-19T02:48:55;8.32;;;6.28;;
11066;SDS011;29763;50.904;5.530;2023-05-19T02:51:21;12.23;;;7.50;;
11066;SDS011;29763;50.904;5.530;2023-05-19T02:53:46;12.07;;;7.07;;
11066;SDS011;29763;50.904;5.530;2023-05-19T02:56:12;8.90;;;6.57;;
11066;SDS011;29763;50.904;5.530;2023-05-19T02:58:38;11.00;;;6.40;;
11066;SDS011;29763;50.904;5.530;2023-05-19T03:01:04;8.02;;;6.18;;
11066;SDS011;29763;50.904;5.530;2023-05-19T03:03:29;10.30;;;6.67;;
11066;SDS011;29763;50.904;5.530;2023-05-19T03:05:55;12.45;;;7.47;;
11066;SDS011;29763;50.904;5.530;2023-05-19T03:08:21;8.50;;;6.60;;
11066;SDS011;29763;50.904;5.530;2023-05-19T03:10:47;9.17;;;6.63;;
11066;SDS011;29763;50.904;5.530;2023-05-19T03:13:13;7.07;;;6.07;;
11066;SDS011;29763;50.904;5.530;2023-05-19T03:15:41;7.73;;;6.07;;
11066;SDS011;29763;50.904;5.530;2023-05-19T03:18:07;8.00;;;6.32;;
11066;SDS011;29763;50.904;5.530;2023-05-19T03:20:33;12.03;;;7.00;;
11066;SDS011;29763;50.904;5.530;2023-05-19T03:22:59;10.17;;;6.83;;
11066;SDS011;29763;50.904;5.530;2023-05-19T03:25:25;8.57;;;6.70;;
11066;SDS011;29763;50.904;5.530;2023-05-19T03:27:51;8.70;;;6.50;;
11066;SDS011;29763;50.904;5.530;2023-05-19T03:30:17;8.00;;;6.63;;
11066;SDS011;29763;50.904;5.530;2023-05-19T03:32:43;8.43;;;6.40;;
11066;SDS011;29763;50.904;5.530;2023-05-19T03:35:09;10.23;;;6.70;;
11066;SDS011;29763;50.904;5.530;2023-05-19T03:37:35;7.27;;;6.50;;
11066;SDS011;29763;50.904;5.530;2023-05-19T03:40:00;8.07;;;6.60;;
11066;SDS011;29763;50.904;5.530;2023-05-19T03:42:26;8.53;;;6.70;;
11066;SDS011;29763;50.904;5.530;2023-05-19T03:44:55;15.20;;;7.13;;
11066;SDS011;29763;50.904;5.530;2023-05-19T03:47:21;12.80;;;7.40;;
11066;SDS011;29763;50.904;5.530;2023-05-19T03:49:47;20.13;;;9.57;;
11066;SDS011;29763;50.904;5.530;2023-05-19T03:52:12;14.60;;;8.87;;
11066;SDS011;29763;50.904;5.530;2023-05-19T03:54:39;17.53;;;8.40;;
11066;SDS011;29763;50.904;5.530;2023-05-19T03:57:07;16.13;;;7.77;;
11066;SDS011;29763;50.904;5.530;2023-05-19T03:59:35;14.40;;;7.73;;
11066;SDS011;29763;50.904;5.530;2023-05-19T04:02:01;18.30;;;8.73;;
11066;SDS011;29763;50.904;5.530;2023-05-19T04:04:27;29.65;;;11.73;;
11066;SDS011;29763;50.904;5.530;2023-05-19T04:06:53;24.57;;;10.43;;
11066;SDS011;29763;50.904;5.530;2023-05-19T04:09:20;21.03;;;10.23;;
11066;SDS011;29763;50.904;5.530;2023-05-19T04:11:47;15.80;;;9.10;;
11066;SDS011;29763;50.904;5.530;2023-05-19T04:14:13;17.50;;;9.10;;
11066;SDS011;29763;50.904;5.530;2023-05-19T04:16:40;21.33;;;10.37;;
11066;SDS011;29763;50.904;5.530;2023-05-19T04:19:06;15.03;;;8.70;;
11066;SDS011;29763;50.904;5.530;2023-05-19T04:21:31;17.07;;;9.47;;
11066;SDS011;29763;50.904;5.530;2023-05-19T04:23:57;19.13;;;8.80;;
11066;SDS011;29763;50.904;5.530;2023-05-19T04:26:30;13.35;;;8.55;;
11066;SDS011;29763;50.904;5.530;2023-05-19T04:28:58;11.43;;;7.73;;
11066;SDS011;29763;50.904;5.530;2023-05-19T04:31:24;12.57;;;7.73;;
11066;SDS011;29763;50.904;5.530;2023-05-19T04:33:51;11.47;;;8.03;;
11066;SDS011;29763;50.904;5.530;2023-05-19T04:36:17;12.10;;;7.60;;
11066;SDS011;29763;50.904;5.530;2023-05-19T04:38:45;14.23;;;7.67;;
11066;SDS011;29763;50.904;5.530;2023-05-19T04:41:11;13.57;;;7.50;;
11066;SDS011;29763;50.904;5.530;2023-05-19T04:43:38;11.17;;;7.50;;
11066;SDS011;29763;50.904;5.530;2023-05-19T04:46:08;10.37;;;7.33;;
11066;SDS011;29763;50.904;5.530;2023-05-19T04:48:37;9.25;;;7.32;;
11066;SDS011;29763;50.904;5.530;2023-05-19T04:51:04;9.00;;;7.63;;
11066;SDS011;29763;50.904;5.530;2023-05-19T04:53:31;12.57;;;7.73;;
11066;SDS011;29763;50.904;5.530;2023-05-19T04:56:00;9.33;;;7.60;;
11066;SDS011;29763;50.904;5.530;2023-05-19T04:58:29;12.93;;;7.83;;
11066;SDS011;29763;50.904;5.530;2023-05-19T05:00:55;15.40;;;8.70;;
11066;SDS011;29763;50.904;5.530;2023-05-19T05:03:21;13.03;;;8.60;;
11066;SDS011;29763;50.904;5.530;2023-05-19T05:05:48;14.03;;;8.60;;
11066;SDS011;29763;50.904;5.530;2023-05-19T05:08:14;15.60;;;8.50;;
11066;SDS011;29763;50.904;5.530;2023-05-19T05:10:46;10.95;;;7.53;;
11066;SDS011;29763;50.904;5.530;2023-05-19T05:13:12;14.27;;;7.90;;
11066;SDS011;29763;50.904;5.530;2023-05-19T05:15:38;11.97;;;7.50;;
11066;SDS011;29763;50.904;5.530;2023-05-19T05:18:03;13.83;;;8.30;;
11066;SDS011;29763;50.904;5.530;2023-05-19T05:20:30;11.00;;;8.02;;
11066;SDS011;29763;50.904;5.530;2023-05-19T05:22:56;11.70;;;8.25;;
11066;SDS011;29763;50.904;5.530;2023-05-19T05:25:22;13.32;;;8.23;;
11066;SDS011;29763;50.904;5.530;2023-05-19T05:27:48;11.02;;;8.38;;
11066;SDS011;29763;50.904;5.530;2023-05-19T05:30:14;11.45;;;7.63;;
11066;SDS011;29763;50.904;5.530;2023-05-19T05:32:40;11.43;;;7.93;;
11066;SDS011;29763;50.904;5.530;2023-05-19T05:35:06;12.77;;;7.18;;
11066;SDS011;29763;50.904;5.530;2023-05-19T05:37:32;10.70;;;7.53;;
11066;SDS011;29763;50.904;5.530;2023-05-19T05:39:58;11.10;;;7.45;;
11066;SDS011;29763;50.904;5.530;2023-05-19T05:42:24;12.18;;;7.53;;
11066;SDS011;29763;50.904;5.530;2023-05-19T05:44:49;11.40;;;7.50;;
11066;SDS011;29763;50.904;5.530;2023-05-19T05:47:15;9.60;;;7.53;;
11066;SDS011;29763;50.904;5.530;2023-05-19T05:49:41;10.35;;;7.03;;
11066;SDS011;29763;50.904;5.530;2023-05-19T05:52:09;9.18;;;7.32;;
11066;SDS011;29763;50.904;5.530;2023-05-19T05:54:36;9.38;;;6.75;;
11066;SDS011;29763;50.904;5.530;2023-05-19T05:57:02;12.15;;;7.47;;
11066;SDS011;29763;50.904;5.530;2023-05-19T05:59:29;9.20;;;7.13;;
11066;SDS011;29763;50.904;5.530;2023-05-19T06:01:54;11.18;;;7.22;;
11066;SDS011;29763;50.904;5.530;2023-05-19T06:04:20;10.82;;;7.53;;
11066;SDS011;29763;50.904;5.530;2023-05-19T06:06:46;9.77;;;6.68;;
11066;SDS011;29763;50.904;5.530;2023-05-19T06:09:11;10.52;;;7.22;;
11066;SDS011;29763;50.904;5.530;2023-05-19T06:11:37;9.90;;;6.72;;
11066;SDS011;29763;50.904;5.530;2023-05-19T06:14:03;10.90;;;7.38;;
11066;SDS011;29763;50.904;5.530;2023-05-19T06:16:28;10.63;;;6.60;;
11066;SDS011;29763;50.904;5.530;2023-05-19T06:18:54;9.77;;;7.03;;
11066;SDS011;29763;50.904;5.530;2023-05-19T06:21:20;10.07;;;7.00;;
11066;SDS011;29763;50.904;5.530;2023-05-19T06:23:48;7.22;;;6.28;;
11066;SDS011;29763;50.904;5.530;2023-05-19T06:26:14;8.65;;;6.22;;
11066;SDS011;29763;50.904;5.530;2023-05-19T06:28:40;9.25;;;6.43;;
11066;SDS011;29763;50.904;5.530;2023-05-19T06:31:06;9.43;;;6.32;;
11066;SDS011;29763;50.904;5.530;2023-05-19T06:33:32;9.93;;;6.53;;
11066;SDS011;29763;50.904;5.530;2023-05-19T06:35:58;8.73;;;6.32;;
11066;SDS011;29763;50.904;5.530;2023-05-19T06:38:23;8.02;;;6.00;;
11066;SDS011;29763;50.904;5.530;2023-05-19T06:40:49;7.55;;;6.00;;
11066;SDS011;29763;50.904;5.530;2023-05-19T06:43:17;10.50;;;6.20;;
11066;SDS011;29763;50.904;5.530;2023-05-19T06:45:43;9.98;;;5.78;;
11066;SDS011;29763;50.904;5.530;2023-05-19T06:48:09;6.65;;;5.65;;
11066;SDS011;29763;50.904;5.530;2023-05-19T06:50:35;11.10;;;5.82;;
11066;SDS011;29763;50.904;5.530;2023-05-19T06:53:01;8.68;;;5.68;;
11066;SDS011;29763;50.904;5.530;2023-05-19T06:55:26;10.70;;;5.75;;
11066;SDS011;29763;50.904;5.530;2023-05-19T06:57:52;7.10;;;5.10;;
11066;SDS011;29763;50.904;5.530;2023-05-19T07:00:18;7.93;;;5.63;;
11066;SDS011;29763;50.904;5.530;2023-05-19T07:02:44;9.45;;;5.25;;
11066;SDS011;29763;50.904;5.530;2023-05-19T07:05:10;8.45;;;5.05;;
11066;SDS011;29763;50.904;5.530;2023-05-19T07:07:35;7.25;;;5.40;;
11066;SDS011;29763;50.904;5.530;2023-05-19T07:10:04;6.32;;;4.75;;
11066;SDS011;29763;50.904;5.530;2023-05-19T07:12:30;9.80;;;5.10;;
11066;SDS011;29763;50.904;5.530;2023-05-19T07:14:56;8.70;;;4.43;;
11066;SDS011;29763;50.904;5.530;2023-05-19T07:17:22;7.93;;;4.50;;
11066;SDS011;29763;50.904;5.530;2023-05-19T07:19:47;8.48;;;4.60;;
11066;SDS011;29763;50.904;5.530;2023-05-19T07:22:13;6.65;;;4.50;;
11066;SDS011;29763;50.904;5.530;2023-05-19T07:24:40;8.23;;;4.25;;
11066;SDS011;29763;50.904;5.530;2023-05-19T07:27:05;9.80;;;4.30;;
11066;SDS011;29763;50.904;5.530;2023-05-19T07:29:31;5.78;;;3.47;;
11066;SDS011;29763;50.904;5.530;2023-05-19T07:32:00;5.88;;;3.50;;
11066;SDS011;29763;50.904;5.530;2023-05-19T07:34:26;6.35;;;4.00;;
11066;SDS011;29763;50.904;5.530;2023-05-19T07:36:52;7.20;;;3.88;;
11066;SDS011;29763;50.904;5.530;2023-05-19T07:39:17;6.55;;;3.78;;
11066;SDS011;29763;50.904;5.530;2023-05-19T07:41:43;7.10;;;3.92;;
11066;SDS011;29763;50.904;5.530;2023-05-19T07:44:16;6.32;;;3.60;;
11066;SDS011;29763;50.904;5.530;2023-05-19T07:46:42;8.77;;;3.88;;
11066;SDS011;29763;50.904;5.530;2023-05-19T07:49:08;6.22;;;4.00;;
11066;SDS011;29763;50.904;5.530;2023-05-19T07:51:33;6.97;;;4.05;;
11066;SDS011;29763;50.904;5.530;2023-05-19T07:53:59;7.88;;;3.90;;
11066;SDS011;29763;50.904;5.530;2023-05-19T07:56:25;5.35;;;3.63;;
11066;SDS011;29763;50.904;5.530;2023-05-19T07:58:51;5.05;;;2.92;;
11066;SDS011;29763;50.904;5.530;2023-05-19T08:01:17;5.57;;;3.20;;
11066;SDS011;29763;50.904;5.530;2023-05-19T08:03:42;5.15;;;2.90;;
11066;SDS011;29763;50.904;5.530;2023-05-19T08:06:08;5.03;;;3.30;;
11066;SDS011;29763;50.904;5.530;2023-05-19T08:08:34;6.20;;;3.20;;
11066;SDS011;29763;50.904;5.530;2023-05-19T08:11:03;4.93;;;3.08;;
11066;SDS011;29763;50.904;5.530;2023-05-19T08:13:29;4.53;;;2.95;;
11066;SDS011;29763;50.904;5.530;2023-05-19T08:15:55;4.10;;;2.75;;
11066;SDS011;29763;50.904;5.530;2023-05-19T08:18:26;6.82;;;2.80;;
11066;SDS011;29763;50.904;5.530;2023-05-19T08:20:52;5.82;;;2.88;;
11066;SDS011;29763;50.904;5.530;2023-05-19T08:23:18;5.95;;;2.83;;
11066;SDS011;29763;50.904;5.530;2023-05-19T08:25:44;6.90;;;3.30;;
11066;SDS011;29763;50.904;5.530;2023-05-19T08:28:09;5.55;;;2.58;;
11066;SDS011;29763;50.904;5.530;2023-05-19T08:30:35;4.43;;;2.58;;
11066;SDS011;29763;50.904;5.530;2023-05-19T08:33:01;5.53;;;3.15;;
11066;SDS011;29763;50.904;5.530;2023-05-19T08:35:30;5.85;;;2.75;;
11066;SDS011;29763;50.904;5.530;2023-05-19T08:37:56;5.90;;;2.90;;
11066;SDS011;29763;50.904;5.530;2023-05-19T08:40:21;8.07;;;2.60;;
11066;SDS011;29763;50.904;5.530;2023-05-19T08:42:47;7.80;;;2.67;;
11066;SDS011;29763;50.904;5.530;2023-05-19T08:45:13;7.18;;;2.67;;
11066;SDS011;29763;50.904;5.530;2023-05-19T08:47:43;4.22;;;3.00;;
11066;SDS011;29763;50.904;5.530;2023-05-19T08:50:12;4.35;;;2.30;;
11066;SDS011;29763;50.904;5.530;2023-05-19T08:52:54;5.43;;;2.10;;
11066;SDS011;29763;50.904;5.530;2023-05-19T08:58:11;4.25;;;2.22;;
11066;SDS011;29763;50.904;5.530;2023-05-19T09:00:37;6.35;;;2.75;;
11066;SDS011;29763;50.904;5.530;2023-05-19T09:03:03;4.15;;;2.55;;
11066;SDS011;29763;50.904;5.530;2023-05-19T09:05:30;5.85;;;2.50;;
11066;SDS011;29763;50.904;5.530;2023-05-19T09:07:56;4.63;;;2.38;;
11066;SDS011;29763;50.904;5.530;2023-05-19T09:10:22;5.55;;;2.80;;
11066;SDS011;29763;50.904;5.530;2023-05-19T09:12:48;5.38;;;2.63;;
11066;SDS011;29763;50.904;5.530;2023-05-19T09:15:17;4.40;;;2.55;;
11066;SDS011;29763;50.904;5.530;2023-05-19T09:17:44;6.60;;;2.90;;
11066;SDS011;29763;50.904;5.530;2023-05-19T09:20:12;5.15;;;2.85;;
11066;SDS011;29763;50.904;5.530;2023-05-19T09:22:43;4.85;;;2.75;;
11066;SDS011;29763;50.904;5.530;2023-05-19T09:25:17;6.80;;;2.92;;
11066;SDS011;29763;50.904;5.530;2023-05-19T09:27:45;6.93;;;3.05;;
11066;SDS011;29763;50.904;5.530;2023-05-19T09:30:12;6.97;;;2.92;;
11066;SDS011;29763;50.904;5.530;2023-05-19T09:32:39;5.40;;;2.97;;
11066;SDS011;29763;50.904;5.530;2023-05-19T09:35:05;6.22;;;2.90;;
11066;SDS011;29763;50.904;5.530;2023-05-19T09:37:31;5.45;;;2.47;;
11066;SDS011;29763;50.904;5.530;2023-05-19T09:40:00;6.85;;;3.22;;
11066;SDS011;29763;50.904;5.530;2023-05-19T09:42:28;8.38;;;2.90;;
11066;SDS011;29763;50.904;5.530;2023-05-19T09:44:58;4.55;;;2.55;;
11066;SDS011;29763;50.904;5.530;2023-05-19T09:47:31;4.82;;;3.03;;
11066;SDS011;29763;50.904;5.530;2023-05-19T09:49:58;4.90;;;2.72;;
11066;SDS011;29763;50.904;5.530;2023-05-19T09:52:24;6.07;;;3.60;;
11066;SDS011;29763;50.904;5.530;2023-05-19T09:54:50;5.97;;;3.50;;
11066;SDS011;29763;50.904;5.530;2023-05-19T09:57:15;6.35;;;3.20;;
11066;SDS011;29763;50.904;5.530;2023-05-19T09:59:41;7.05;;;3.13;;
11066;SDS011;29763;50.904;5.530;2023-05-19T10:02:10;5.47;;;3.15;;
11066;SDS011;29763;50.904;5.530;2023-05-19T10:04:40;5.32;;;3.25;;
11066;SDS011;29763;50.904;5.530;2023-05-19T10:07:08;6.97;;;3.20;;
11066;SDS011;29763;50.904;5.530;2023-05-19T10:09:36;5.22;;;3.28;;
11066;SDS011;29763;50.904;5.530;2023-05-19T10:12:03;6.55;;;3.35;;
11066;SDS011;29763;50.904;5.530;2023-05-19T10:14:30;6.97;;;3.70;;
11066;SDS011;29763;50.904;5.530;2023-05-19T10:16:57;5.68;;;3.40;;
11066;SDS011;29763;50.904;5.530;2023-05-19T10:19:24;5.30;;;3.30;;
11066;SDS011;29763;50.904;5.530;2023-05-19T10:21:53;8.77;;;3.63;;
11066;SDS011;29763;50.904;5.530;2023-05-19T10:24:20;6.13;;;3.60;;
11066;SDS011;29763;50.904;5.530;2023-05-19T10:29:22;7.78;;;3.47;;
11066;SDS011;29763;50.904;5.530;2023-05-19T10:31:52;7.05;;;3.72;;
11066;SDS011;29763;50.904;5.530;2023-05-19T10:43:24;5.32;;;2.92;;
11066;SDS011;29763;50.904;5.530;2023-05-19T10:46:25;4.55;;;3.08;;
11066;SDS011;29763;50.904;5.530;2023-05-19T10:48:52;6.10;;;3.20;;
11066;SDS011;29763;50.904;5.530;2023-05-19T10:51:18;5.50;;;2.75;;
11066;SDS011;29763;50.904;5.530;2023-05-19T10:53:44;9.15;;;3.38;;
11066;SDS011;29763;50.904;5.530;2023-05-19T10:56:10;5.30;;;3.10;;
11066;SDS011;29763;50.904;5.530;2023-05-19T10:58:53;7.32;;;3.00;;
11066;SDS011;29763;50.904;5.530;2023-05-19T11:01:18;7.70;;;3.63;;
11066;SDS011;29763;50.904;5.530;2023-05-19T11:06:30;6.10;;;3.33;;
11066;SDS011;29763;50.904;5.530;2023-05-19T11:09:18;4.85;;;3.05;;
11066;SDS011;29763;50.904;5.530;2023-05-19T11:11:47;7.28;;;2.90;;
11066;SDS011;29763;50.904;5.530;2023-05-19T11:14:20;6.88;;;2.65;;
11066;SDS011;29763;50.904;5.530;2023-05-19T11:16:56;5.45;;;2.42;;
11066;SDS011;29763;50.904;5.530;2023-05-19T11:19:56;6.72;;;3.03;;
11066;SDS011;29763;50.904;5.530;2023-05-19T11:22:17;6.05;;;3.03;;
11066;SDS011;29763;50.904;5.530;2023-05-19T11:24:46;5.78;;;3.30;;
11066;SDS011;29763;50.904;5.530;2023-05-19T11:29:58;5.00;;;3.20;;
11066;SDS011;29763;50.904;5.530;2023-05-19T11:32:29;5.20;;;2.90;;
11066;SDS011;29763;50.904;5.530;2023-05-19T11:34:57;4.35;;;2.78;;
11066;SDS011;29763;50.904;5.530;2023-05-19T11:37:24;6.13;;;2.80;;
11066;SDS011;29763;50.904;5.530;2023-05-19T11:39:50;5.22;;;2.70;;
11066;SDS011;29763;50.904;5.530;2023-05-19T11:42:17;5.07;;;2.90;;
11066;SDS011;29763;50.904;5.530;2023-05-19T11:44:43;8.32;;;3.30;;
11066;SDS011;29763;50.904;5.530;2023-05-19T11:47:15;6.25;;;3.25;;
11066;SDS011;29763;50.904;5.530;2023-05-19T11:49:44;5.43;;;2.70;;
11066;SDS011;29763;50.904;5.530;2023-05-19T11:52:13;7.10;;;3.17;;
11066;SDS011;29763;50.904;5.530;2023-05-19T11:54:39;5.43;;;2.78;;
11066;SDS011;29763;50.904;5.530;2023-05-19T11:57:07;4.05;;;2.70;;
11066;SDS011;29763;50.904;5.530;2023-05-19T11:59:35;4.45;;;2.70;;
11066;SDS011;29763;50.904;5.530;2023-05-19T12:02:14;3.67;;;2.47;;
11066;SDS011;29763;50.904;5.530;2023-05-19T12:04:40;4.75;;;2.50;;
11066;SDS011;29763;50.904;5.530;2023-05-19T12:07:06;7.95;;;2.80;;
11066;SDS011;29763;50.904;5.530;2023-05-19T12:09:32;5.28;;;2.70;;
11066;SDS011;29763;50.904;5.530;2023-05-19T12:11:57;4.57;;;2.60;;
11066;SDS011;29763;50.904;5.530;2023-05-19T12:14:24;4.32;;;2.58;;
11066;SDS011;29763;50.904;5.530;2023-05-19T12:16:51;4.22;;;2.40;;
11066;SDS011;29763;50.904;5.530;2023-05-19T12:19:16;7.63;;;2.85;;
11066;SDS011;29763;50.904;5.530;2023-05-19T12:21:45;6.15;;;2.88;;
11066;SDS011;29763;50.904;5.530;2023-05-19T12:24:11;5.32;;;2.70;;
11066;SDS011;29763;50.904;5.530;2023-05-19T12:26:37;4.65;;;2.67;;
11066;SDS011;29763;50.904;5.530;2023-05-19T12:29:03;4.07;;;2.40;;
11066;SDS011;29763;50.904;5.530;2023-05-19T12:31:30;6.22;;;2.88;;
11066;SDS011;29763;50.904;5.530;2023-05-19T12:33:58;4.60;;;2.50;;
11066;SDS011;29763;50.904;5.530;2023-05-19T12:36:25;7.30;;;2.35;;
11066;SDS011;29763;50.904;5.530;2023-05-19T12:38:53;4.55;;;2.45;;
11066;SDS011;29763;50.904;5.530;2023-05-19T12:41:19;6.00;;;2.63;;
11066;SDS011;29763;50.904;5.530;2023-05-19T12:43:45;5.50;;;2.60;;
11066;SDS011;29763;50.904;5.530;2023-05-19T12:46:12;4.43;;;2.58;;
11066;SDS011;29763;50.904;5.530;2023-05-19T12:48:43;7.25;;;2.70;;
11066;SDS011;29763;50.904;5.530;2023-05-19T12:51:09;5.60;;;2.50;;
11066;SDS011;29763;50.904;5.530;2023-05-19T12:53:39;5.55;;;2.40;;
11066;SDS011;29763;50.904;5.530;2023-05-19T12:56:13;6.13;;;2.30;;
11066;SDS011;29763;50.904;5.530;2023-05-19T12:58:40;5.90;;;2.70;;
11066;SDS011;29763;50.904;5.530;2023-05-19T13:01:06;4.22;;;2.28;;
11066;SDS011;29763;50.904;5.530;2023-05-19T13:03:40;4.53;;;2.20;;
11066;SDS011;29763;50.904;5.530;2023-05-19T13:06:07;4.80;;;2.20;;
11066;SDS011;29763;50.904;5.530;2023-05-19T13:08:39;4.75;;;2.60;;
11066;SDS011;29763;50.904;5.530;2023-05-19T13:11:05;7.95;;;2.50;;
11066;SDS011;29763;50.904;5.530;2023-05-19T13:13:31;3.80;;;2.50;;
11066;SDS011;29763;50.904;5.530;2023-05-19T13:15:57;4.57;;;2.45;;
11066;SDS011;29763;50.904;5.530;2023-05-19T13:18:23;4.25;;;2.70;;
11066;SDS011;29763;50.904;5.530;2023-05-19T13:20:51;4.22;;;2.30;;
11066;SDS011;29763;50.904;5.530;2023-05-19T13:23:18;4.88;;;2.63;;
11066;SDS011;29763;50.904;5.530;2023-05-19T13:25:43;5.15;;;2.60;;
11066;SDS011;29763;50.904;5.530;2023-05-19T13:28:09;6.68;;;2.58;;
11066;SDS011;29763;50.904;5.530;2023-05-19T13:30:36;4.85;;;2.30;;
11066;SDS011;29763;50.904;5.530;2023-05-19T13:33:03;4.40;;;2.42;;
11066;SDS011;29763;50.904;5.530;2023-05-19T13:35:28;5.82;;;2.97;;
11066;SDS011;29763;50.904;5.530;2023-05-19T13:38:00;6.25;;;2.67;;
11066;SDS011;29763;50.904;5.530;2023-05-19T13:40:30;5.18;;;2.75;;
11066;SDS011;29763;50.904;5.530;2023-05-19T13:42:59;8.93;;;2.72;;
11066;SDS011;29763;50.904;5.530;2023-05-19T13:45:26;7.32;;;2.95;;
11066;SDS011;29763;50.904;5.530;2023-05-19T13:47:52;5.15;;;3.25;;
11066;SDS011;29763;50.904;5.530;2023-05-19T13:50:17;4.25;;;2.22;;
11066;SDS011;29763;50.904;5.530;2023-05-19T13:52:43;5.45;;;2.88;;
11066;SDS011;29763;50.904;5.530;2023-05-19T13:55:09;6.15;;;2.53;;
11066;SDS011;29763;50.904;5.530;2023-05-19T13:57:35;7.20;;;2.90;;
11066;SDS011;29763;50.904;5.530;2023-05-19T14:00:01;4.40;;;2.60;;
11066;SDS011;29763;50.904;5.530;2023-05-19T14:02:28;7.40;;;3.10;;
11066;SDS011;29763;50.904;5.530;2023-05-19T14:04:54;6.28;;;2.92;;
11066;SDS011;29763;50.904;5.530;2023-05-19T14:07:20;9.43;;;2.92;;
11066;SDS011;29763;50.904;5.530;2023-05-19T14:09:45;6.43;;;2.95;;
11066;SDS011;29763;50.904;5.530;2023-05-19T14:12:11;9.45;;;2.90;;
11066;SDS011;29763;50.904;5.530;2023-05-19T14:14:37;6.38;;;2.88;;
11066;SDS011;29763;50.904;5.530;2023-05-19T14:17:03;5.80;;;2.97;;
11066;SDS011;29763;50.904;5.530;2023-05-19T14:19:29;5.65;;;2.85;;
11066;SDS011;29763;50.904;5.530;2023-05-19T14:21:55;6.10;;;2.88;;
11066;SDS011;29763;50.904;5.530;2023-05-19T14:24:21;4.57;;;2.60;;
11066;SDS011;29763;50.904;5.530;2023-05-19T14:26:49;7.95;;;3.05;;
11066;SDS011;29763;50.904;5.530;2023-05-19T14:29:16;5.78;;;3.22;;
11066;SDS011;29763;50.904;5.530;2023-05-19T14:31:42;4.97;;;3.13;;
11066;SDS011;29763;50.904;5.530;2023-05-19T14:34:08;7.85;;;3.70;;
11066;SDS011;29763;50.904;5.530;2023-05-19T14:36:33;5.57;;;3.13;;
11066;SDS011;29763;50.904;5.530;2023-05-19T14:38:59;6.53;;;3.22;;
11066;SDS011;29763;50.904;5.530;2023-05-19T14:41:26;5.47;;;2.97;;
11066;SDS011;29763;50.904;5.530;2023-05-19T14:43:51;5.53;;;2.60;;
11066;SDS011;29763;50.904;5.530;2023-05-19T14:46:17;9.50;;;3.38;;
11066;SDS011;29763;50.904;5.530;2023-05-19T14:48:43;5.38;;;3.15;;
11066;SDS011;29763;50.904;5.530;2023-05-19T14:51:09;5.55;;;2.88;;
11066;SDS011;29763;50.904;5.530;2023-05-19T14:53:34;5.70;;;2.78;;
11066;SDS011;29763;50.904;5.530;2023-05-19T14:56:00;6.25;;;3.10;;
11066;SDS011;29763;50.904;5.530;2023-05-19T14:58:26;6.18;;;2.97;;
11066;SDS011;29763;50.904;5.530;2023-05-19T15:00:52;7.35;;;3.22;;
11066;SDS011;29763;50.904;5.530;2023-05-19T15:03:17;4.90;;;3.22;;
11066;SDS011;29763;50.904;5.530;2023-05-19T15:05:43;5.40;;;2.90;;
11066;SDS011;29763;50.904;5.530;2023-05-19T15:08:09;8.75;;;3.05;;
11066;SDS011;29763;50.904;5.530;2023-05-19T15:10:35;5.63;;;2.95;;
11066;SDS011;29763;50.904;5.530;2023-05-19T15:13:01;6.63;;;3.25;;
11066;SDS011;29763;50.904;5.530;2023-05-19T15:15:28;8.18;;;3.38;;
11066;SDS011;29763;50.904;5.530;2023-05-19T15:17:54;5.95;;;3.05;;